sensor_id;sensor_type;location;lat;lon;timestamp;P1;durP1;ratioP1;P2;durP2;ratioP2
17347;SDS011;8791;50.876;4.342;2023-06-22T00:00:04;8.55;;;5.75;;
17347;SDS011;8791;50.876;4.342;2023-06-22T00:02:36;9.98;;;5.40;;
17347;SDS011;8791;50.876;4.342;2023-06-22T00:05:03;12.07;;;5.20;;
17347;SDS011;8791;50.876;4.342;2023-06-22T00:07:30;12.27;;;5.40;;
17347;SDS011;8791;50.876;4.342;2023-06-22T00:09:56;6.07;;;5.45;;
17347;SDS011;8791;50.876;4.342;2023-06-22T00:12:25;12.15;;;5.57;;
17347;SDS011;8791;50.876;4.342;2023-06-22T00:14:52;7.07;;;5.05;;
17347;SDS011;8791;50.876;4.342;2023-06-22T00:17:18;8.95;;;5.30;;
17347;SDS011;8791;50.876;4.342;2023-06-22T00:19:46;8.15;;;4.75;;
17347;SDS011;8791;50.876;4.342;2023-06-22T00:22:18;5.40;;;4.88;;
17347;SDS011;8791;50.876;4.342;2023-06-22T00:24:46;7.32;;;5.25;;
17347;SDS011;8791;50.876;4.342;2023-06-22T00:27:13;12.38;;;5.20;;
17347;SDS011;8791;50.876;4.342;2023-06-22T00:29:41;9.20;;;5.38;;
17347;SDS011;8791;50.876;4.342;2023-06-22T00:32:08;5.53;;;4.97;;
17347;SDS011;8791;50.876;4.342;2023-06-22T00:34:35;9.63;;;4.90;;
17347;SDS011;8791;50.876;4.342;2023-06-22T00:37:02;5.40;;;4.55;;
17347;SDS011;8791;50.876;4.342;2023-06-22T00:39:29;4.60;;;4.15;;
17347;SDS011;8791;50.876;4.342;2023-06-22T00:41:58;5.60;;;4.15;;
17347;SDS011;8791;50.876;4.342;2023-06-22T00:44:25;5.28;;;3.80;;
17347;SDS011;8791;50.876;4.342;2023-06-22T00:46:53;6.05;;;3.88;;
17347;SDS011;8791;50.876;4.342;2023-06-22T00:49:20;4.25;;;3.33;;
17347;SDS011;8791;50.876;4.342;2023-06-22T00:51:47;4.95;;;3.75;;
17347;SDS011;8791;50.876;4.342;2023-06-22T00:54:14;6.50;;;3.53;;
17347;SDS011;8791;50.876;4.342;2023-06-22T00:56:41;5.13;;;3.47;;
17347;SDS011;8791;50.876;4.342;2023-06-22T00:59:09;10.02;;;3.88;;
17347;SDS011;8791;50.876;4.342;2023-06-22T01:01:37;7.82;;;3.55;;
17347;SDS011;8791;50.876;4.342;2023-06-22T01:04:07;6.60;;;3.35;;
17347;SDS011;8791;50.876;4.342;2023-06-22T01:06:35;4.07;;;3.17;;
17347;SDS011;8791;50.876;4.342;2023-06-22T01:09:08;6.68;;;3.33;;
17347;SDS011;8791;50.876;4.342;2023-06-22T01:11:41;4.22;;;3.50;;
17347;SDS011;8791;50.876;4.342;2023-06-22T01:14:12;5.35;;;3.85;;
17347;SDS011;8791;50.876;4.342;2023-06-22T01:16:44;3.80;;;3.30;;
17347;SDS011;8791;50.876;4.342;2023-06-22T01:19:20;4.90;;;3.40;;
17347;SDS011;8791;50.876;4.342;2023-06-22T01:22:01;5.50;;;3.95;;
17347;SDS011;8791;50.876;4.342;2023-06-22T01:24:31;4.47;;;4.05;;
17347;SDS011;8791;50.876;4.342;2023-06-22T01:27:09;6.38;;;4.05;;
17347;SDS011;8791;50.876;4.342;2023-06-22T01:29:48;4.15;;;3.60;;
17347;SDS011;8791;50.876;4.342;2023-06-22T01:32:17;3.97;;;3.58;;
17347;SDS011;8791;50.876;4.342;2023-06-22T01:34:45;5.18;;;3.92;;
17347;SDS011;8791;50.876;4.342;2023-06-22T01:37:13;7.60;;;3.92;;
17347;SDS011;8791;50.876;4.342;2023-06-22T01:39:41;3.45;;;3.15;;
17347;SDS011;8791;50.876;4.342;2023-06-22T01:42:08;4.00;;;3.30;;
17347;SDS011;8791;50.876;4.342;2023-06-22T01:44:36;6.07;;;4.05;;
17347;SDS011;8791;50.876;4.342;2023-06-22T01:47:05;4.30;;;3.40;;
17347;SDS011;8791;50.876;4.342;2023-06-22T01:49:33;5.32;;;3.63;;
17347;SDS011;8791;50.876;4.342;2023-06-22T01:52:00;6.53;;;3.45;;
17347;SDS011;8791;50.876;4.342;2023-06-22T01:54:27;7.45;;;3.70;;
17347;SDS011;8791;50.876;4.342;2023-06-22T01:56:54;4.10;;;3.60;;
17347;SDS011;8791;50.876;4.342;2023-06-22T01:59:22;7.55;;;3.80;;
17347;SDS011;8791;50.876;4.342;2023-06-22T02:01:57;7.90;;;3.60;;
17347;SDS011;8791;50.876;4.342;2023-06-22T02:04:30;5.70;;;3.70;;
17347;SDS011;8791;50.876;4.342;2023-06-22T02:07:02;4.50;;;4.10;;
17347;SDS011;8791;50.876;4.342;2023-06-22T02:09:35;5.15;;;3.75;;
17347;SDS011;8791;50.876;4.342;2023-06-22T02:12:05;5.53;;;3.85;;
17347;SDS011;8791;50.876;4.342;2023-06-22T02:14:34;7.72;;;4.18;;
17347;SDS011;8791;50.876;4.342;2023-06-22T02:17:01;7.28;;;4.30;;
17347;SDS011;8791;50.876;4.342;2023-06-22T02:19:31;6.75;;;4.00;;
17347;SDS011;8791;50.876;4.342;2023-06-22T02:21:58;4.57;;;4.18;;
17347;SDS011;8791;50.876;4.342;2023-06-22T02:24:25;5.47;;;4.22;;
17347;SDS011;8791;50.876;4.342;2023-06-22T02:26:51;4.47;;;4.07;;
17347;SDS011;8791;50.876;4.342;2023-06-22T02:29:18;7.07;;;3.92;;
17347;SDS011;8791;50.876;4.342;2023-06-22T02:31:45;7.03;;;4.75;;
17347;SDS011;8791;50.876;4.342;2023-06-22T02:34:12;6.13;;;4.00;;
17347;SDS011;8791;50.876;4.342;2023-06-22T02:36:44;10.27;;;4.72;;
17347;SDS011;8791;50.876;4.342;2023-06-22T02:39:15;6.65;;;4.28;;
17347;SDS011;8791;50.876;4.342;2023-06-22T02:41:43;8.18;;;5.28;;
17347;SDS011;8791;50.876;4.342;2023-06-22T02:44:10;6.00;;;4.68;;
17347;SDS011;8791;50.876;4.342;2023-06-22T02:46:37;6.00;;;5.15;;
17347;SDS011;8791;50.876;4.342;2023-06-22T02:49:04;8.20;;;4.75;;
17347;SDS011;8791;50.876;4.342;2023-06-22T02:51:32;5.28;;;4.68;;
17347;SDS011;8791;50.876;4.342;2023-06-22T02:54:02;5.53;;;4.93;;
17347;SDS011;8791;50.876;4.342;2023-06-22T02:56:29;5.18;;;4.68;;
17347;SDS011;8791;50.876;4.342;2023-06-22T02:58:56;6.97;;;5.20;;
17347;SDS011;8791;50.876;4.342;2023-06-22T03:01:25;5.35;;;4.85;;
17347;SDS011;8791;50.876;4.342;2023-06-22T03:03:52;4.82;;;4.43;;
17347;SDS011;8791;50.876;4.342;2023-06-22T03:06:20;8.30;;;4.95;;
17347;SDS011;8791;50.876;4.342;2023-06-22T03:08:48;10.07;;;5.40;;
17347;SDS011;8791;50.876;4.342;2023-06-22T03:11:17;7.70;;;5.22;;
17347;SDS011;8791;50.876;4.342;2023-06-22T03:13:43;11.63;;;5.57;;
17347;SDS011;8791;50.876;4.342;2023-06-22T03:16:11;5.88;;;5.32;;
17347;SDS011;8791;50.876;4.342;2023-06-22T03:18:38;6.57;;;5.32;;
17347;SDS011;8791;50.876;4.342;2023-06-22T03:21:05;6.78;;;5.50;;
17347;SDS011;8791;50.876;4.342;2023-06-22T03:23:32;6.65;;;5.10;;
17347;SDS011;8791;50.876;4.342;2023-06-22T03:25:58;6.47;;;5.50;;
17347;SDS011;8791;50.876;4.342;2023-06-22T03:28:27;6.10;;;5.55;;
17347;SDS011;8791;50.876;4.342;2023-06-22T03:30:54;5.85;;;5.28;;
17347;SDS011;8791;50.876;4.342;2023-06-22T03:33:23;9.02;;;5.38;;
17347;SDS011;8791;50.876;4.342;2023-06-22T03:35:50;6.57;;;5.70;;
17347;SDS011;8791;50.876;4.342;2023-06-22T03:38:18;6.72;;;5.78;;
17347;SDS011;8791;50.876;4.342;2023-06-22T03:40:45;6.60;;;5.32;;
17347;SDS011;8791;50.876;4.342;2023-06-22T03:43:12;7.68;;;5.38;;
17347;SDS011;8791;50.876;4.342;2023-06-22T03:45:41;6.70;;;5.43;;
17347;SDS011;8791;50.876;4.342;2023-06-22T03:48:10;8.13;;;5.93;;
17347;SDS011;8791;50.876;4.342;2023-06-22T03:50:37;6.82;;;5.05;;
17347;SDS011;8791;50.876;4.342;2023-06-22T03:53:04;8.13;;;6.25;;
17347;SDS011;8791;50.876;4.342;2023-06-22T03:55:31;6.88;;;6.18;;
17347;SDS011;8791;50.876;4.342;2023-06-22T03:58:01;8.38;;;6.35;;
17347;SDS011;8791;50.876;4.342;2023-06-22T04:00:30;11.98;;;6.57;;
17347;SDS011;8791;50.876;4.342;2023-06-22T04:02:58;9.25;;;7.13;;
17347;SDS011;8791;50.876;4.342;2023-06-22T04:05:25;9.52;;;7.38;;
17347;SDS011;8791;50.876;4.342;2023-06-22T04:07:52;13.77;;;6.85;;
17347;SDS011;8791;50.876;4.342;2023-06-22T04:10:19;11.63;;;7.78;;
17347;SDS011;8791;50.876;4.342;2023-06-22T04:12:46;8.43;;;6.90;;
17347;SDS011;8791;50.876;4.342;2023-06-22T04:15:13;8.88;;;6.95;;
17347;SDS011;8791;50.876;4.342;2023-06-22T04:17:40;12.57;;;7.60;;
17347;SDS011;8791;50.876;4.342;2023-06-22T04:20:09;8.63;;;6.97;;
17347;SDS011;8791;50.876;4.342;2023-06-22T04:22:36;12.30;;;7.43;;
17347;SDS011;8791;50.876;4.342;2023-06-22T04:25:03;11.48;;;7.97;;
17347;SDS011;8791;50.876;4.342;2023-06-22T04:27:30;12.60;;;8.15;;
17347;SDS011;8791;50.876;4.342;2023-06-22T04:29:57;14.13;;;8.82;;
17347;SDS011;8791;50.876;4.342;2023-06-22T04:32:25;17.30;;;8.25;;
17347;SDS011;8791;50.876;4.342;2023-06-22T04:34:52;22.13;;;9.13;;
17347;SDS011;8791;50.876;4.342;2023-06-22T04:37:20;21.60;;;8.75;;
17347;SDS011;8791;50.876;4.342;2023-06-22T04:39:48;22.17;;;9.35;;
17347;SDS011;8791;50.876;4.342;2023-06-22T04:42:15;14.18;;;8.02;;
17347;SDS011;8791;50.876;4.342;2023-06-22T04:44:42;18.33;;;8.52;;
17347;SDS011;8791;50.876;4.342;2023-06-22T04:47:09;21.52;;;9.13;;
17347;SDS011;8791;50.876;4.342;2023-06-22T04:49:36;25.88;;;9.30;;
17347;SDS011;8791;50.876;4.342;2023-06-22T04:52:05;24.10;;;9.43;;
17347;SDS011;8791;50.876;4.342;2023-06-22T04:54:35;14.25;;;10.15;;
17347;SDS011;8791;50.876;4.342;2023-06-22T04:57:04;15.05;;;10.00;;
17347;SDS011;8791;50.876;4.342;2023-06-22T04:59:36;10.85;;;9.65;;
17347;SDS011;8791;50.876;4.342;2023-06-22T05:02:04;13.52;;;9.18;;
17347;SDS011;8791;50.876;4.342;2023-06-22T05:04:32;16.00;;;9.57;;
17347;SDS011;8791;50.876;4.342;2023-06-22T05:07:00;16.88;;;9.30;;
17347;SDS011;8791;50.876;4.342;2023-06-22T05:09:28;16.52;;;9.70;;
17347;SDS011;8791;50.876;4.342;2023-06-22T05:11:57;13.27;;;10.13;;
17347;SDS011;8791;50.876;4.342;2023-06-22T05:14:24;13.20;;;8.63;;
17347;SDS011;8791;50.876;4.342;2023-06-22T05:16:51;16.42;;;9.32;;
17347;SDS011;8791;50.876;4.342;2023-06-22T05:19:18;15.23;;;10.48;;
17347;SDS011;8791;50.876;4.342;2023-06-22T05:21:45;17.73;;;9.68;;
17347;SDS011;8791;50.876;4.342;2023-06-22T05:24:12;17.58;;;10.52;;
17347;SDS011;8791;50.876;4.342;2023-06-22T05:26:39;11.98;;;10.07;;
17347;SDS011;8791;50.876;4.342;2023-06-22T05:29:07;20.42;;;10.63;;
17347;SDS011;8791;50.876;4.342;2023-06-22T05:31:34;15.70;;;10.98;;
17347;SDS011;8791;50.876;4.342;2023-06-22T05:34:01;17.60;;;10.90;;
17347;SDS011;8791;50.876;4.342;2023-06-22T05:36:28;16.52;;;10.32;;
17347;SDS011;8791;50.876;4.342;2023-06-22T05:38:56;17.75;;;10.70;;
17347;SDS011;8791;50.876;4.342;2023-06-22T05:41:23;18.80;;;10.82;;
17347;SDS011;8791;50.876;4.342;2023-06-22T05:43:50;24.45;;;11.35;;
17347;SDS011;8791;50.876;4.342;2023-06-22T05:46:18;15.70;;;10.90;;
17347;SDS011;8791;50.876;4.342;2023-06-22T05:48:45;21.45;;;11.20;;
17347;SDS011;8791;50.876;4.342;2023-06-22T05:51:12;20.05;;;10.82;;
17347;SDS011;8791;50.876;4.342;2023-06-22T05:53:39;18.70;;;11.27;;
17347;SDS011;8791;50.876;4.342;2023-06-22T05:56:06;23.98;;;11.43;;
17347;SDS011;8791;50.876;4.342;2023-06-22T05:58:33;27.42;;;11.07;;
17347;SDS011;8791;50.876;4.342;2023-06-22T06:01:01;25.33;;;11.85;;
17347;SDS011;8791;50.876;4.342;2023-06-22T06:03:29;26.33;;;11.90;;
17347;SDS011;8791;50.876;4.342;2023-06-22T06:05:56;20.63;;;11.98;;
17347;SDS011;8791;50.876;4.342;2023-06-22T06:08:23;18.25;;;12.45;;
17347;SDS011;8791;50.876;4.342;2023-06-22T06:10:50;15.82;;;11.85;;
17347;SDS011;8791;50.876;4.342;2023-06-22T06:13:20;18.13;;;12.02;;
17347;SDS011;8791;50.876;4.342;2023-06-22T06:15:46;24.92;;;11.57;;
17347;SDS011;8791;50.876;4.342;2023-06-22T06:18:13;17.40;;;12.20;;
17347;SDS011;8791;50.876;4.342;2023-06-22T06:20:41;18.15;;;12.20;;
17347;SDS011;8791;50.876;4.342;2023-06-22T06:23:08;21.30;;;13.57;;
17347;SDS011;8791;50.876;4.342;2023-06-22T06:25:35;23.08;;;12.38;;
17347;SDS011;8791;50.876;4.342;2023-06-22T06:28:02;19.13;;;12.68;;
17347;SDS011;8791;50.876;4.342;2023-06-22T06:30:30;23.85;;;13.30;;
17347;SDS011;8791;50.876;4.342;2023-06-22T06:32:57;23.38;;;12.25;;
17347;SDS011;8791;50.876;4.342;2023-06-22T06:35:24;29.83;;;12.73;;
17347;SDS011;8791;50.876;4.342;2023-06-22T06:37:52;21.98;;;13.60;;
17347;SDS011;8791;50.876;4.342;2023-06-22T06:40:19;23.15;;;12.32;;
17347;SDS011;8791;50.876;4.342;2023-06-22T06:42:46;23.10;;;13.02;;
17347;SDS011;8791;50.876;4.342;2023-06-22T06:45:15;26.90;;;13.60;;
17347;SDS011;8791;50.876;4.342;2023-06-22T06:47:43;28.52;;;14.48;;
17347;SDS011;8791;50.876;4.342;2023-06-22T06:50:10;28.13;;;14.77;;
17347;SDS011;8791;50.876;4.342;2023-06-22T06:52:37;19.90;;;12.85;;
17347;SDS011;8791;50.876;4.342;2023-06-22T06:55:07;18.90;;;13.25;;
17347;SDS011;8791;50.876;4.342;2023-06-22T06:57:36;27.95;;;13.85;;
17347;SDS011;8791;50.876;4.342;2023-06-22T07:00:04;21.08;;;13.88;;
17347;SDS011;8791;50.876;4.342;2023-06-22T07:02:35;19.17;;;13.48;;
17347;SDS011;8791;50.876;4.342;2023-06-22T07:05:03;18.90;;;13.13;;
17347;SDS011;8791;50.876;4.342;2023-06-22T07:07:31;19.80;;;13.27;;
17347;SDS011;8791;50.876;4.342;2023-06-22T07:09:58;22.58;;;14.15;;
17347;SDS011;8791;50.876;4.342;2023-06-22T07:12:26;16.55;;;13.25;;
17347;SDS011;8791;50.876;4.342;2023-06-22T07:14:53;16.88;;;13.70;;
17347;SDS011;8791;50.876;4.342;2023-06-22T07:17:20;16.00;;;13.82;;
17347;SDS011;8791;50.876;4.342;2023-06-22T07:19:46;19.02;;;13.45;;
17347;SDS011;8791;50.876;4.342;2023-06-22T07:22:13;25.48;;;14.45;;
17347;SDS011;8791;50.876;4.342;2023-06-22T07:24:40;17.33;;;14.20;;
17347;SDS011;8791;50.876;4.342;2023-06-22T07:27:07;20.05;;;13.88;;
17347;SDS011;8791;50.876;4.342;2023-06-22T07:29:37;17.75;;;14.45;;
17347;SDS011;8791;50.876;4.342;2023-06-22T07:32:05;25.65;;;14.70;;
17347;SDS011;8791;50.876;4.342;2023-06-22T07:34:33;21.48;;;14.75;;
17347;SDS011;8791;50.876;4.342;2023-06-22T07:37:00;18.95;;;14.38;;
17347;SDS011;8791;50.876;4.342;2023-06-22T07:39:27;17.67;;;14.27;;
17347;SDS011;8791;50.876;4.342;2023-06-22T07:41:54;21.63;;;14.68;;
17347;SDS011;8791;50.876;4.342;2023-06-22T07:44:21;16.33;;;12.45;;
17347;SDS011;8791;50.876;4.342;2023-06-22T07:46:49;20.75;;;13.18;;
17347;SDS011;8791;50.876;4.342;2023-06-22T07:49:16;18.38;;;13.13;;
17347;SDS011;8791;50.876;4.342;2023-06-22T07:51:43;18.33;;;13.30;;
17347;SDS011;8791;50.876;4.342;2023-06-22T07:54:10;18.83;;;12.80;;
17347;SDS011;8791;50.876;4.342;2023-06-22T07:56:37;15.23;;;12.15;;
17347;SDS011;8791;50.876;4.342;2023-06-22T07:59:04;20.15;;;13.70;;
17347;SDS011;8791;50.876;4.342;2023-06-22T08:01:30;18.38;;;12.93;;
17347;SDS011;8791;50.876;4.342;2023-06-22T08:03:59;16.55;;;12.30;;
17347;SDS011;8791;50.876;4.342;2023-06-22T08:06:25;20.15;;;12.48;;
17347;SDS011;8791;50.876;4.342;2023-06-22T08:08:52;17.60;;;11.70;;
17347;SDS011;8791;50.876;4.342;2023-06-22T08:11:24;17.08;;;12.45;;
17347;SDS011;8791;50.876;4.342;2023-06-22T08:13:51;19.40;;;12.15;;
17347;SDS011;8791;50.876;4.342;2023-06-22T08:16:17;26.23;;;13.05;;
17347;SDS011;8791;50.876;4.342;2023-06-22T08:18:44;20.23;;;13.57;;
17347;SDS011;8791;50.876;4.342;2023-06-22T08:21:12;20.50;;;13.30;;
17347;SDS011;8791;50.876;4.342;2023-06-22T08:23:39;22.52;;;13.48;;
17347;SDS011;8791;50.876;4.342;2023-06-22T08:26:06;18.17;;;13.75;;
17347;SDS011;8791;50.876;4.342;2023-06-22T08:28:33;21.33;;;14.93;;
17347;SDS011;8791;50.876;4.342;2023-06-22T08:31:02;22.75;;;15.07;;
17347;SDS011;8791;50.876;4.342;2023-06-22T08:33:29;27.13;;;13.80;;
17347;SDS011;8791;50.876;4.342;2023-06-22T08:35:56;24.23;;;14.00;;
17347;SDS011;8791;50.876;4.342;2023-06-22T08:38:25;18.20;;;13.40;;
17347;SDS011;8791;50.876;4.342;2023-06-22T08:40:52;22.10;;;15.25;;
17347;SDS011;8791;50.876;4.342;2023-06-22T08:43:19;18.67;;;15.02;;
17347;SDS011;8791;50.876;4.342;2023-06-22T08:45:46;21.52;;;14.98;;
17347;SDS011;8791;50.876;4.342;2023-06-22T08:48:12;18.10;;;14.35;;
17347;SDS011;8791;50.876;4.342;2023-06-22T08:50:39;22.70;;;14.95;;
17347;SDS011;8791;50.876;4.342;2023-06-22T08:53:06;17.30;;;14.40;;
17347;SDS011;8791;50.876;4.342;2023-06-22T08:55:35;16.50;;;13.40;;
17347;SDS011;8791;50.876;4.342;2023-06-22T08:58:01;16.63;;;14.63;;
17347;SDS011;8791;50.876;4.342;2023-06-22T09:00:28;21.67;;;15.05;;
17347;SDS011;8791;50.876;4.342;2023-06-22T09:02:58;20.42;;;14.85;;
17347;SDS011;8791;50.876;4.342;2023-06-22T09:05:24;18.17;;;14.75;;
17347;SDS011;8791;50.876;4.342;2023-06-22T09:07:52;18.83;;;15.07;;
17347;SDS011;8791;50.876;4.342;2023-06-22T09:10:19;21.83;;;14.65;;
17347;SDS011;8791;50.876;4.342;2023-06-22T09:12:48;20.20;;;14.43;;
17347;SDS011;8791;50.876;4.342;2023-06-22T09:15:14;21.10;;;15.00;;
17347;SDS011;8791;50.876;4.342;2023-06-22T09:17:42;19.40;;;14.25;;
17347;SDS011;8791;50.876;4.342;2023-06-22T09:20:11;23.02;;;14.10;;
17347;SDS011;8791;50.876;4.342;2023-06-22T09:22:38;19.98;;;14.07;;
17347;SDS011;8791;50.876;4.342;2023-06-22T09:25:07;22.65;;;14.60;;
17347;SDS011;8791;50.876;4.342;2023-06-22T09:27:34;23.80;;;14.43;;
17347;SDS011;8791;50.876;4.342;2023-06-22T09:30:03;20.10;;;16.10;;
17347;SDS011;8791;50.876;4.342;2023-06-22T09:32:31;18.15;;;14.40;;
17347;SDS011;8791;50.876;4.342;2023-06-22T09:34:58;20.45;;;14.77;;
17347;SDS011;8791;50.876;4.342;2023-06-22T09:37:25;21.90;;;15.13;;
17347;SDS011;8791;50.876;4.342;2023-06-22T09:39:52;22.13;;;15.95;;
17347;SDS011;8791;50.876;4.342;2023-06-22T09:42:19;20.77;;;14.57;;
17347;SDS011;8791;50.876;4.342;2023-06-22T09:44:46;19.63;;;14.15;;
17347;SDS011;8791;50.876;4.342;2023-06-22T09:47:14;16.95;;;15.07;;
17347;SDS011;8791;50.876;4.342;2023-06-22T09:49:41;24.90;;;16.92;;
17347;SDS011;8791;50.876;4.342;2023-06-22T09:52:08;25.02;;;16.88;;
17347;SDS011;8791;50.876;4.342;2023-06-22T09:54:36;31.63;;;20.52;;
17347;SDS011;8791;50.876;4.342;2023-06-22T09:57:04;33.85;;;18.85;;
17347;SDS011;8791;50.876;4.342;2023-06-22T09:59:31;36.63;;;19.98;;
17347;SDS011;8791;50.876;4.342;2023-06-22T10:01:58;35.05;;;20.38;;
17347;SDS011;8791;50.876;4.342;2023-06-22T10:04:26;26.05;;;19.15;;
17347;SDS011;8791;50.876;4.342;2023-06-22T10:06:53;31.70;;;21.70;;
17347;SDS011;8791;50.876;4.342;2023-06-22T10:09:20;28.35;;;20.02;;
17347;SDS011;8791;50.876;4.342;2023-06-22T10:11:47;21.25;;;17.13;;
17347;SDS011;8791;50.876;4.342;2023-06-22T10:14:14;27.13;;;17.27;;
17347;SDS011;8791;50.876;4.342;2023-06-22T10:16:42;21.40;;;19.00;;
17347;SDS011;8791;50.876;4.342;2023-06-22T10:19:09;30.60;;;22.00;;
17347;SDS011;8791;50.876;4.342;2023-06-22T10:21:37;26.02;;;22.13;;
17347;SDS011;8791;50.876;4.342;2023-06-22T10:24:04;28.75;;;25.25;;
17347;SDS011;8791;50.876;4.342;2023-06-22T10:26:32;35.15;;;27.90;;
17347;SDS011;8791;50.876;4.342;2023-06-22T10:28:59;39.17;;;30.20;;
17347;SDS011;8791;50.876;4.342;2023-06-22T10:31:26;39.47;;;32.55;;
17347;SDS011;8791;50.876;4.342;2023-06-22T10:33:53;43.95;;;32.22;;
17347;SDS011;8791;50.876;4.342;2023-06-22T10:36:20;41.03;;;30.45;;
17347;SDS011;8791;50.876;4.342;2023-06-22T10:38:49;42.35;;;31.58;;
17347;SDS011;8791;50.876;4.342;2023-06-22T10:41:15;42.42;;;31.73;;
17347;SDS011;8791;50.876;4.342;2023-06-22T10:43:42;47.80;;;33.45;;
17347;SDS011;8791;50.876;4.342;2023-06-22T10:46:09;51.50;;;35.42;;
17347;SDS011;8791;50.876;4.342;2023-06-22T10:48:36;49.73;;;35.13;;
17347;SDS011;8791;50.876;4.342;2023-06-22T10:51:03;56.35;;;37.15;;
17347;SDS011;8791;50.876;4.342;2023-06-22T10:53:30;55.53;;;40.03;;
17347;SDS011;8791;50.876;4.342;2023-06-22T10:55:58;58.38;;;38.47;;
17347;SDS011;8791;50.876;4.342;2023-06-22T10:58:25;56.42;;;39.60;;
17347;SDS011;8791;50.876;4.342;2023-06-22T11:00:51;59.40;;;41.88;;
17347;SDS011;8791;50.876;4.342;2023-06-22T11:03:18;55.90;;;39.83;;
17347;SDS011;8791;50.876;4.342;2023-06-22T11:05:45;61.75;;;41.03;;
17347;SDS011;8791;50.876;4.342;2023-06-22T11:08:13;60.85;;;41.42;;
17347;SDS011;8791;50.876;4.342;2023-06-22T11:10:39;64.45;;;41.65;;
17347;SDS011;8791;50.876;4.342;2023-06-22T11:13:07;60.92;;;40.40;;
17347;SDS011;8791;50.876;4.342;2023-06-22T11:15:35;67.22;;;41.17;;
17347;SDS011;8791;50.876;4.342;2023-06-22T11:18:02;60.30;;;40.38;;
17347;SDS011;8791;50.876;4.342;2023-06-22T11:20:32;60.70;;;39.92;;
17347;SDS011;8791;50.876;4.342;2023-06-22T11:23:03;59.28;;;40.42;;
17347;SDS011;8791;50.876;4.342;2023-06-22T11:25:31;52.13;;;37.05;;
17347;SDS011;8791;50.876;4.342;2023-06-22T11:28:03;56.05;;;37.47;;
17347;SDS011;8791;50.876;4.342;2023-06-22T11:30:32;54.20;;;34.72;;
17347;SDS011;8791;50.876;4.342;2023-06-22T11:32:59;43.50;;;31.48;;
17347;SDS011;8791;50.876;4.342;2023-06-22T11:35:26;43.72;;;32.63;;
17347;SDS011;8791;50.876;4.342;2023-06-22T11:37:53;38.50;;;29.95;;
17347;SDS011;8791;50.876;4.342;2023-06-22T11:40:21;38.25;;;30.15;;
17347;SDS011;8791;50.876;4.342;2023-06-22T11:42:48;36.92;;;30.08;;
17347;SDS011;8791;50.876;4.342;2023-06-22T11:45:14;40.45;;;30.25;;
17347;SDS011;8791;50.876;4.342;2023-06-22T11:47:43;45.97;;;32.30;;
17347;SDS011;8791;50.876;4.342;2023-06-22T11:50:10;46.80;;;29.65;;
17347;SDS011;8791;50.876;4.342;2023-06-22T11:52:37;40.38;;;31.42;;
17347;SDS011;8791;50.876;4.342;2023-06-22T11:55:04;48.03;;;32.17;;
17347;SDS011;8791;50.876;4.342;2023-06-22T11:57:33;44.55;;;31.17;;
17347;SDS011;8791;50.876;4.342;2023-06-22T12:00:00;43.50;;;33.08;;
17347;SDS011;8791;50.876;4.342;2023-06-22T12:02:31;42.90;;;30.98;;
17347;SDS011;8791;50.876;4.342;2023-06-22T12:04:59;35.17;;;29.77;;
17347;SDS011;8791;50.876;4.342;2023-06-22T12:07:29;38.67;;;29.33;;
17347;SDS011;8791;50.876;4.342;2023-06-22T12:09:56;44.03;;;31.08;;
17347;SDS011;8791;50.876;4.342;2023-06-22T12:12:23;35.42;;;28.98;;
17347;SDS011;8791;50.876;4.342;2023-06-22T12:14:50;37.83;;;29.25;;
17347;SDS011;8791;50.876;4.342;2023-06-22T12:17:17;41.67;;;29.60;;
17347;SDS011;8791;50.876;4.342;2023-06-22T12:19:46;38.85;;;30.50;;
17347;SDS011;8791;50.876;4.342;2023-06-22T12:22:14;44.35;;;31.08;;
17347;SDS011;8791;50.876;4.342;2023-06-22T12:24:41;37.47;;;30.50;;
17347;SDS011;8791;50.876;4.342;2023-06-22T12:27:08;41.20;;;31.38;;
17347;SDS011;8791;50.876;4.342;2023-06-22T12:29:35;43.22;;;32.63;;
17347;SDS011;8791;50.876;4.342;2023-06-22T12:32:02;41.83;;;32.05;;
17347;SDS011;8791;50.876;4.342;2023-06-22T12:34:30;46.63;;;33.30;;
17347;SDS011;8791;50.876;4.342;2023-06-22T12:36:56;54.10;;;35.25;;
17347;SDS011;8791;50.876;4.342;2023-06-22T12:39:24;46.72;;;35.88;;
17347;SDS011;8791;50.876;4.342;2023-06-22T12:41:51;47.55;;;36.35;;
17347;SDS011;8791;50.876;4.342;2023-06-22T12:44:18;66.55;;;38.40;;
17347;SDS011;8791;50.876;4.342;2023-06-22T12:46:45;57.58;;;37.45;;
17347;SDS011;8791;50.876;4.342;2023-06-22T12:49:12;60.67;;;39.58;;
17347;SDS011;8791;50.876;4.342;2023-06-22T12:51:39;56.58;;;37.55;;
17347;SDS011;8791;50.876;4.342;2023-06-22T12:54:07;60.28;;;39.50;;
17347;SDS011;8791;50.876;4.342;2023-06-22T12:56:35;60.60;;;39.13;;
17347;SDS011;8791;50.876;4.342;2023-06-22T12:59:03;64.05;;;41.75;;
17347;SDS011;8791;50.876;4.342;2023-06-22T13:01:30;62.63;;;40.67;;
17347;SDS011;8791;50.876;4.342;2023-06-22T13:03:57;64.28;;;41.13;;
17347;SDS011;8791;50.876;4.342;2023-06-22T13:06:24;63.88;;;41.33;;
17347;SDS011;8791;50.876;4.342;2023-06-22T13:08:51;67.22;;;41.05;;
17347;SDS011;8791;50.876;4.342;2023-06-22T13:11:18;64.38;;;40.00;;
17347;SDS011;8791;50.876;4.342;2023-06-22T13:13:46;62.90;;;40.42;;
17347;SDS011;8791;50.876;4.342;2023-06-22T13:16:13;70.95;;;42.53;;
17347;SDS011;8791;50.876;4.342;2023-06-22T13:18:43;69.82;;;40.28;;
17347;SDS011;8791;50.876;4.342;2023-06-22T13:21:10;71.18;;;42.13;;
17347;SDS011;8791;50.876;4.342;2023-06-22T13:23:37;68.82;;;41.13;;
17347;SDS011;8791;50.876;4.342;2023-06-22T13:26:03;66.95;;;40.95;;
17347;SDS011;8791;50.876;4.342;2023-06-22T13:28:30;68.47;;;40.28;;
17347;SDS011;8791;50.876;4.342;2023-06-22T13:30:58;66.25;;;39.95;;
17347;SDS011;8791;50.876;4.342;2023-06-22T13:33:25;66.28;;;40.30;;
17347;SDS011;8791;50.876;4.342;2023-06-22T13:35:52;70.65;;;41.92;;
17347;SDS011;8791;50.876;4.342;2023-06-22T13:38:19;60.75;;;39.72;;
17347;SDS011;8791;50.876;4.342;2023-06-22T13:40:47;58.33;;;38.65;;
17347;SDS011;8791;50.876;4.342;2023-06-22T13:43:14;58.70;;;40.53;;
17347;SDS011;8791;50.876;4.342;2023-06-22T13:45:41;61.47;;;38.75;;
17347;SDS011;8791;50.876;4.342;2023-06-22T13:48:10;58.78;;;37.22;;
17347;SDS011;8791;50.876;4.342;2023-06-22T13:50:37;60.95;;;40.03;;
17347;SDS011;8791;50.876;4.342;2023-06-22T13:53:04;71.05;;;41.58;;
17347;SDS011;8791;50.876;4.342;2023-06-22T13:55:30;70.25;;;40.83;;
17347;SDS011;8791;50.876;4.342;2023-06-22T13:57:57;71.20;;;41.92;;
17347;SDS011;8791;50.876;4.342;2023-06-22T14:00:24;66.37;;;41.73;;
17347;SDS011;8791;50.876;4.342;2023-06-22T14:02:52;75.55;;;42.42;;
17347;SDS011;8791;50.876;4.342;2023-06-22T14:05:21;67.07;;;42.67;;
17347;SDS011;8791;50.876;4.342;2023-06-22T14:07:47;66.78;;;40.95;;
17347;SDS011;8791;50.876;4.342;2023-06-22T14:10:14;74.90;;;42.08;;
17347;SDS011;8791;50.876;4.342;2023-06-22T14:12:41;71.27;;;42.67;;
17347;SDS011;8791;50.876;4.342;2023-06-22T14:15:09;68.47;;;41.13;;
17347;SDS011;8791;50.876;4.342;2023-06-22T14:17:36;64.10;;;41.45;;
17347;SDS011;8791;50.876;4.342;2023-06-22T14:20:04;67.80;;;40.55;;
17347;SDS011;8791;50.876;4.342;2023-06-22T14:22:34;66.60;;;42.22;;
17347;SDS011;8791;50.876;4.342;2023-06-22T14:25:01;65.47;;;42.83;;
17347;SDS011;8791;50.876;4.342;2023-06-22T14:27:29;70.82;;;42.05;;
17347;SDS011;8791;50.876;4.342;2023-06-22T14:29:56;76.55;;;44.33;;
17347;SDS011;8791;50.876;4.342;2023-06-22T14:32:23;74.80;;;44.03;;
17347;SDS011;8791;50.876;4.342;2023-06-22T14:34:52;75.75;;;45.97;;
17347;SDS011;8791;50.876;4.342;2023-06-22T14:37:26;88.72;;;50.75;;
17347;SDS011;8791;50.876;4.342;2023-06-22T14:40:06;89.15;;;51.50;;
17347;SDS011;8791;50.876;4.342;2023-06-22T14:42:46;96.78;;;52.83;;
17347;SDS011;8791;50.876;4.342;2023-06-22T14:45:18;104.45;;;55.88;;